Topeka, KS (66611)

2:10 AM CDT on October 25, 2014 (GMT -0500)
Berkshire Golf Course | Change Station
CLOSE
Current Station
Personal Weather Station
Location: Topeka, KS
Elevation: 1020 ft
Nearby Weather Stations

Elev 1020 ft 39.00 °N, 95.73 °W | Updated 7 minutes ago

Clear
Clear
64.4 °F
Feels Like 64.4 °F
N
0.0
Wind Variable Wind from SSE

Today
High -- | Low -- °F
--% Chance of Precip.
Yesterday
High -- | Low -- °F
Precip. -- in
7:42 AM 6:30 PM
New Moon, 2% visible
Pressure 29.99 in
Visibility 9.0 miles
Clouds Clear
Dew Point 62 °F
Humidity 93%
Rainfall 0.00 in
Snow Depth Not available.
UV 0 out of 12
Pollen 3.40 out of 12
Air Quality Not available.
Flu Activity No Activity
METAR KFOE 250653Z AUTO 26004KT 9SM CLR 17/15 A3001 RMK AO2 SLP154 T01670150

More Conditions Fewer Conditions

Pressure 29.99 in
Visibility 9.0 miles
Clouds Clear
Dew Point 62 °F
Humidity 93%
Rainfall 0.00 in
Snow Depth Not available.
UV 0 out of 12
Pollen 3.40 out of 12
Air Quality Not available.
Flu Activity No Activity
METAR KFOE 250653Z AUTO 26004KT 9SM CLR 17/15 A3001 RMK AO2 SLP154 T01670150

More Conditions Fewer Conditions

10-Day Weather Forecast

Almanac

Astronomy

Oct. 25, 2014 Rise Set
Actual Time 7:42 AM CDT 6:30 PM CDT
Civil Twilight 7:15 AM CDT 6:57 PM CDT
Nautical Twilight 6:44 AM CDT 7:28 PM CDT
Astronomical Twilight 6:13 AM CDT 7:59 PM CDT
Moon 9:21 AM CDT 7:55 PM CDT
Length of Visible Light 11h 42m
Length of Day
10h 47m
Tomorrow will be 2m 21s shorter.
New Moon, 2% of the Moon is Illuminated
Today
New Moon
Oct 30
First Quarter
Nov 6
Full
Nov 14
Last Quarter
Nov 22
New

Today's Extremes

State Highs State Lows

Community

WunderPhotos

Upload Photos

1,764,789 photos uploaded!

Nearby

Snow Depth

Station Depth Elevation
No new snow has been reported.

Earthquake Activity

City Distance Mag. Time & Date
No recent earthquake activity has been reported nearby.
Minimum magnitude displayed is 2.5.

Coastal Water Temperatures

Place Temperature
No Stations Reporting

Nearby Weather Stations